Time;durP1;ratioP1;P1;durP2;ratioP2;P2;SDS_P1;SDS_P2;PMS_P1;PMS_P2;Temp;Humidity;BMP_temperature;BMP_pressure;BME280_temperature;BME280_humidity;BME280_pressure;Samples;Min_cycle;Max_cycle;Signal;HPM_P1;HPM_P2
2023/09/24 00:00:39;;;;;;;15.38;8.02;;;;;;;-144.30;67.06;84271.44;5071113;28;20200;-59
2023/09/24 00:03:06;;;;;;;12.07;8.32;;;;;;;-144.30;67.14;84311.19;5071366;28;20192;-58
2023/09/24 00:05:33;;;;;;;16.10;7.80;;;;;;;-144.30;67.37;84287.34;5071132;28;20223;-60
2023/09/24 00:08:00;;;;;;;9.00;6.78;;;;;;;-144.30;67.64;84323.13;5070624;28;20192;-56
2023/09/24 00:10:27;;;;;;;12.85;7.55;;;;;;;-144.30;67.62;84319.13;5070930;28;20204;-59
2023/09/24 00:12:56;;;;;;;15.60;7.38;;;;;;;-144.30;67.79;84323.13;5070746;28;20611;-59
2023/09/24 00:15:23;;;;;;;13.05;7.35;;;;;;;-144.30;67.91;84321.13;5071052;28;20337;-60
2023/09/24 00:17:50;;;;;;;21.80;7.75;;;;;;;-144.30;68.01;84299.25;5070564;28;20320;-60
2023/09/24 00:20:18;;;;;;;11.40;7.55;;;;;;;-144.30;68.16;84331.06;5070787;28;20200;-60
2023/09/24 00:22:47;;;;;;;15.43;7.10;;;;;;;-144.30;68.00;84341.00;5070439;28;20294;-60
2023/09/24 00:25:14;;;;;;;14.40;7.82;;;;;;;-144.30;68.57;84305.22;5070600;28;20196;-59
2023/09/24 00:27:41;;;;;;;13.13;7.75;;;;;;;-144.30;68.17;84346.97;5070305;28;20196;-60
2023/09/24 00:30:13;;;;;;;9.32;7.43;;;;;;;-144.30;68.56;84348.94;5070740;28;20238;-59
2023/09/24 00:32:40;;;;;;;17.95;7.63;;;;;;;-144.30;68.62;84346.97;5070491;28;20655;-59
2023/09/24 00:35:09;;;;;;;11.85;7.72;;;;;;;-144.30;68.80;84358.88;5070501;28;20231;-60
2023/09/24 00:37:36;;;;;;;12.07;7.93;;;;;;;-144.30;69.40;84374.78;5070341;28;20249;-58
2023/09/24 00:40:05;;;;;;;17.98;7.88;;;;;;;-144.30;69.33;84370.81;5069963;28;20577;-59
2023/09/24 00:42:32;;;;;;;26.20;7.68;;;;;;;-144.30;69.47;84356.91;5070488;28;20283;-59
2023/09/24 00:44:59;;;;;;;14.05;7.40;;;;;;;-144.30;69.89;84394.66;5070282;28;20195;-55
2023/09/24 00:47:29;;;;;;;10.60;7.30;;;;;;;-144.30;69.94;84325.09;5070355;28;20210;-55
2023/09/24 00:49:57;;;;;;;13.20;8.20;;;;;;;-144.30;70.01;84390.69;5070005;28;20319;-58
2023/09/24 00:52:27;;;;;;;13.32;7.82;;;;;;;-144.30;70.13;84400.63;5070452;28;20286;-60
2023/09/24 00:54:54;;;;;;;8.55;7.57;;;;;;;-144.30;70.28;84398.63;5069956;28;20208;-59
2023/09/24 00:57:23;;;;;;;18.27;8.40;;;;;;;-144.30;70.50;84408.56;5070048;28;20281;-59
2023/09/24 00:59:51;;;;;;;13.43;7.45;;;;;;;-144.30;70.58;84374.78;5069824;28;20192;-60
2023/09/24 01:02:19;;;;;;;10.88;7.72;;;;;;;-144.30;70.98;84446.31;5069973;28;20291;-56
2023/09/24 01:04:49;;;;;;;11.65;7.40;;;;;;;-144.30;71.04;84424.47;5069671;28;20644;-55
2023/09/24 01:07:16;;;;;;;17.27;7.68;;;;;;;-144.30;71.57;84442.34;5070036;28;20287;-56
2023/09/24 01:09:44;;;;;;;12.63;7.72;;;;;;;-144.30;71.58;84466.19;5069504;28;20230;-56
2023/09/24 01:12:21;;;;;;;14.18;7.57;;;;;;;-144.30;71.84;84466.19;5070060;28;20672;-56
2023/09/24 01:14:49;;;;;;;12.23;8.23;;;;;;;-144.30;71.91;84482.09;5069545;28;20192;-56
2023/09/24 01:17:17;;;;;;;12.57;8.02;;;;;;;-144.30;72.36;84503.97;5069815;28;20195;-56
2023/09/24 01:19:44;;;;;;;14.05;7.53;;;;;;;-144.30;72.01;84480.13;5069066;28;20232;-59
2023/09/24 01:22:12;;;;;;;14.98;8.85;;;;;;;-144.30;72.38;84442.34;5070067;28;20258;-59
2023/09/24 01:24:39;;;;;;;11.15;7.88;;;;;;;-144.30;72.83;84466.19;5069597;28;20196;-59
2023/09/24 01:27:07;;;;;;;12.85;8.07;;;;;;;-144.30;72.96;84348.94;5069685;28;20200;-59
2023/09/24 01:29:35;;;;;;;14.73;8.30;;;;;;;-144.30;72.88;84474.16;5069402;28;20228;-60
2023/09/24 01:32:04;;;;;;;10.15;7.68;;;;;;;-144.30;73.36;84492.03;5069273;28;20200;-60
2023/09/24 01:34:31;;;;;;;13.15;8.13;;;;;;;-144.30;73.66;84509.94;5069602;28;20199;-59
2023/09/24 01:36:58;;;;;;;11.73;8.32;;;;;;;-144.30;73.58;84498.00;5069336;28;20200;-60
2023/09/24 01:39:31;;;;;;;9.65;7.60;;;;;;;-144.30;73.55;84503.97;5069210;28;20196;-59
2023/09/24 01:41:58;;;;;;;12.48;8.13;;;;;;;-144.30;74.19;84500.00;5069378;28;20206;-60
2023/09/24 01:44:25;;;;;;;19.15;8.40;;;;;;;-144.30;74.56;84541.72;5069321;28;20581;-60
2023/09/24 01:46:52;;;;;;;11.88;7.88;;;;;;;-144.30;74.19;84521.84;5069019;28;20207;-60
2023/09/24 01:49:19;;;;;;;14.90;8.15;;;;;;;-144.30;74.31;84517.88;5069461;28;20311;-61
2023/09/24 01:51:46;;;;;;;17.63;8.90;;;;;;;-144.30;74.42;84533.78;5069044;28;20231;-59
2023/09/24 01:54:14;;;;;;;10.15;8.52;;;;;;;-144.30;74.62;84539.75;5069273;28;20204;-60
2023/09/24 01:56:42;;;;;;;11.23;8.35;;;;;;;-144.30;74.53;84579.50;5069076;28;20192;-60
2023/09/24 01:59:09;;;;;;;14.45;8.55;;;;;;;-144.30;74.45;84511.91;5069231;28;20200;-60
2023/09/24 02:01:36;;;;;;;17.02;8.27;;;;;;;-144.30;74.80;84559.63;5069238;28;20195;-59
2023/09/24 02:04:03;;;;;;;9.10;7.97;;;;;;;-144.30;74.84;84557.63;5070996;28;20253;-59
2023/09/24 02:06:34;;;;;;;16.65;8.38;;;;;;;-144.30;74.90;84603.34;5073503;28;20195;-59
2023/09/24 02:09:01;;;;;;;12.55;8.10;;;;;;;-144.30;74.59;84553.66;5073201;28;20228;-59
2023/09/24 02:11:28;;;;;;;14.18;9.10;;;;;;;-144.30;74.60;84557.63;5073249;28;20206;-59
2023/09/24 02:13:57;;;;;;;14.43;8.07;;;;;;;-144.30;74.44;84561.59;5072900;28;20769;-59
2023/09/24 02:16:26;;;;;;;10.93;7.72;;;;;;;-144.30;74.56;84545.69;5073279;28;20195;-57
2023/09/24 02:18:53;;;;;;;16.52;8.07;;;;;;;-144.30;74.33;84535.75;5072737;28;20314;-57
2023/09/24 02:21:20;;;;;;;12.13;8.23;;;;;;;-144.30;74.72;84589.41;5073065;28;20298;-56
2023/09/24 02:23:47;;;;;;;12.27;8.00;;;;;;;-144.30;74.70;84573.53;5072802;28;20291;-54
2023/09/24 02:26:14;;;;;;;11.32;7.85;;;;;;;-144.30;74.71;84507.94;5072854;28;20269;-56
2023/09/24 02:28:41;;;;;;;11.27;8.50;;;;;;;-144.30;74.83;84585.44;5072590;28;20282;-56
2023/09/24 02:31:10;;;;;;;12.35;8.10;;;;;;;-144.30;75.08;84585.44;5072891;28;20274;-60
2023/09/24 02:33:37;;;;;;;13.68;8.65;;;;;;;-144.30;75.17;84573.53;5072891;28;20203;-56
2023/09/24 02:36:08;;;;;;;10.57;7.88;;;;;;;-144.30;75.16;84617.25;5072589;28;20291;-56
2023/09/24 02:38:35;;;;;;;19.40;8.57;;;;;;;-144.30;75.28;84533.78;5072773;28;20207;-59
2023/09/24 02:41:03;;;;;;;14.63;8.40;;;;;;;-144.30;75.71;84587.44;5072535;28;20192;-59
2023/09/24 02:43:32;;;;;;;11.50;7.95;;;;;;;-144.30;75.33;84577.50;5072924;28;20634;-60
2023/09/24 02:45:59;;;;;;;12.23;7.75;;;;;;;-144.30;75.50;84621.22;5072357;28;20672;-59
2023/09/24 02:48:27;;;;;;;15.13;8.43;;;;;;;-144.30;75.82;84619.22;5072552;28;20286;-55
2023/09/24 02:50:54;;;;;;;16.27;8.63;;;;;;;-144.30;75.65;84609.31;5072198;28;20676;-57
2023/09/24 02:53:21;;;;;;;12.77;8.30;;;;;;;-144.30;75.83;84615.25;5072217;28;20199;-56
2023/09/24 02:55:48;;;;;;;15.27;9.05;;;;;;;-144.30;75.93;84597.38;5071998;28;20234;-59
2023/09/24 02:58:15;;;;;;;12.30;8.77;;;;;;;-144.30;76.29;84609.31;5072514;28;20196;-60
2023/09/24 03:00:42;;;;;;;11.43;8.07;;;;;;;-144.30;76.29;84621.22;5072024;28;20579;-60
2023/09/24 03:03:10;;;;;;;14.93;8.70;;;;;;;-144.30;75.90;84581.47;5072609;28;20194;-60
2023/09/24 03:05:38;;;;;;;14.40;8.80;;;;;;;-144.30;76.00;84631.16;5072341;28;20210;-59
2023/09/24 03:08:09;;;;;;;10.63;9.10;;;;;;;-144.30;76.82;84625.19;5072030;28;20587;-59
2023/09/24 03:10:37;;;;;;;11.30;8.82;;;;;;;-144.30;76.91;84605.31;5072229;28;20243;-59
2023/09/24 03:13:04;;;;;;;11.90;8.48;;;;;;;-144.30;77.14;84660.97;5072187;28;20653;-59
2023/09/24 03:15:31;;;;;;;17.50;8.73;;;;;;;-144.30;77.01;84662.97;5071991;28;20570;-56
2023/09/24 03:17:58;;;;;;;15.75;8.80;;;;;;;-144.30;77.00;84653.03;5071553;28;20234;-55
2023/09/24 03:20:25;;;;;;;14.02;8.50;;;;;;;-144.30;76.71;84643.09;5071721;28;20298;-56
2023/09/24 03:22:58;;;;;;;13.55;8.55;;;;;;;-144.30;76.78;84625.19;5071998;28;20195;-60
2023/09/24 03:25:26;;;;;;;9.95;8.07;;;;;;;-144.30;77.02;84595.38;5072055;28;20200;-60
2023/09/24 03:27:54;;;;;;;11.77;8.48;;;;;;;-144.30;77.00;84641.09;5071736;28;20200;-60
2023/09/24 03:30:22;;;;;;;14.68;7.97;;;;;;;-144.30;77.42;84645.06;5071556;28;20220;-60
2023/09/24 03:32:50;;;;;;;14.55;8.80;;;;;;;-144.30;77.12;84637.13;5071367;28;20231;-60
2023/09/24 03:35:21;;;;;;;11.98;7.82;;;;;;;-144.30;77.06;84651.03;5071608;28;20200;-57
2023/09/24 03:37:48;;;;;;;15.63;8.10;;;;;;;-144.30;77.04;84674.88;5071582;28;20667;-56
2023/09/24 03:40:18;;;;;;;9.95;8.30;;;;;;;-144.30;77.27;84649.03;5071447;28;20188;-60
2023/09/24 03:42:46;;;;;;;12.98;8.63;;;;;;;-144.30;77.17;84660.97;5071325;28;20250;-60
2023/09/24 03:45:16;;;;;;;13.45;8.70;;;;;;;-144.30;77.31;84676.88;5071440;28;20203;-59
2023/09/24 03:47:43;;;;;;;11.55;8.80;;;;;;;-144.30;77.63;84666.94;5070980;28;20202;-60
2023/09/24 03:50:13;;;;;;;13.45;8.73;;;;;;;-144.30;77.55;84613.28;5071659;28;20223;-59
2023/09/24 03:52:40;;;;;;;16.70;8.50;;;;;;;-144.30;77.91;84668.94;5071393;28;20199;-59
2023/09/24 03:55:08;;;;;;;17.95;8.63;;;;;;;-144.30;77.73;84680.84;5071558;28;20650;-56
2023/09/24 03:57:38;;;;;;;15.48;9.43;;;;;;;-144.30;77.79;84662.97;5071096;28;20198;-56
2023/09/24 04:00:11;;;;;;;11.43;8.02;;;;;;;-144.30;78.13;84649.03;5070854;28;20188;-56
2023/09/24 04:02:39;;;;;;;16.98;8.55;;;;;;;-144.30;78.27;84688.81;5071201;28;20195;-56
2023/09/24 04:05:08;;;;;;;12.07;8.20;;;;;;;-144.30;78.28;84678.84;5070860;28;20196;-56
2023/09/24 04:07:38;;;;;;;13.30;8.38;;;;;;;-144.30;78.36;84692.78;5070976;28;20286;-56
2023/09/24 04:10:05;;;;;;;9.32;8.43;;;;;;;-144.30;78.46;84664.94;5070751;28;20226;-56
2023/09/24 04:12:34;;;;;;;15.10;8.77;;;;;;;-144.30;78.38;84692.78;5070716;28;20202;-55
2023/09/24 04:15:03;;;;;;;10.80;8.43;;;;;;;-144.30;78.39;84643.09;5070923;28;20192;-56
2023/09/24 04:17:31;;;;;;;15.20;8.70;;;;;;;-144.30;78.38;84664.94;5070865;28;20660;-59
2023/09/24 04:19:58;;;;;;;12.93;9.13;;;;;;;-144.30;78.60;84627.19;5070579;28;20278;-59
2023/09/24 04:22:25;;;;;;;10.90;8.68;;;;;;;-144.30;78.79;84692.78;5070804;28;20192;-55
2023/09/24 04:24:54;;;;;;;12.63;9.00;;;;;;;-144.30;78.50;84668.94;5070619;28;20269;-55
2023/09/24 04:27:21;;;;;;;15.20;8.48;;;;;;;-144.30;78.27;84670.91;5070094;28;20243;-56
2023/09/24 04:29:48;;;;;;;13.10;8.73;;;;;;;-144.30;78.21;84696.75;5070288;28;20231;-56
2023/09/24 04:32:16;;;;;;;18.05;8.60;;;;;;;-144.30;78.04;84700.72;5070485;28;20207;-56
2023/09/24 04:34:45;;;;;;;10.40;7.97;;;;;;;-144.30;78.06;84712.66;5070479;28;20745;-56
2023/09/24 04:37:12;;;;;;;16.50;8.98;;;;;;;-144.30;78.25;84641.09;5070594;28;20206;-55
2023/09/24 04:39:39;;;;;;;10.55;8.27;;;;;;;-144.30;77.73;84655.00;5070280;28;20195;-55
2023/09/24 04:42:08;;;;;;;12.40;9.13;;;;;;;-144.30;77.14;84670.91;5070170;28;20257;-56
2023/09/24 04:44:35;;;;;;;9.82;8.15;;;;;;;-144.30;76.38;84645.06;5070272;28;20208;-56
2023/09/24 04:47:04;;;;;;;10.52;8.95;;;;;;;-144.30;75.92;84633.16;5070067;28;20563;-56
2023/09/24 04:49:32;;;;;;;12.73;8.68;;;;;;;-144.30;75.71;84603.34;5070153;28;20591;-59
2023/09/24 04:51:59;;;;;;;11.80;7.93;;;;;;;-144.30;75.18;84599.34;5069994;28;20192;-60
2023/09/24 04:54:26;;;;;;;15.27;8.57;;;;;;;-144.30;74.72;84589.41;5069967;28;20358;-59
2023/09/24 04:56:53;;;;;;;11.88;8.95;;;;;;;-144.30;74.82;84565.56;5070106;28;20805;-59
2023/09/24 04:59:20;;;;;;;12.80;8.52;;;;;;;-144.30;74.06;84549.69;5070108;28;20212;-59
2023/09/24 05:01:47;;;;;;;15.63;8.93;;;;;;;-144.30;73.10;84523.84;5069650;28;20206;-59
2023/09/24 05:04:14;;;;;;;13.20;8.82;;;;;;;-144.30;72.25;84517.88;5070432;28;20235;-59
2023/09/24 05:06:42;;;;;;;16.15;9.68;;;;;;;-144.30;71.04;84474.16;5069654;28;20593;-59
2023/09/24 05:09:09;;;;;;;13.13;8.52;;;;;;;-144.30;70.00;84446.31;5070091;28;20199;-59
2023/09/24 05:11:36;;;;;;;10.30;8.48;;;;;;;-144.30;69.45;84287.34;5069859;28;20250;-56
2023/09/24 05:14:03;;;;;;;10.25;8.25;;;;;;;-144.30;68.50;84370.81;5069712;28;20224;-59
2023/09/24 05:16:31;;;;;;;9.10;8.20;;;;;;;-144.30;67.24;84321.13;5069722;28;20208;-56
2023/09/24 05:19:02;;;;;;;11.68;8.63;;;;;;;-144.30;65.06;84221.75;5069398;28;20231;-55
2023/09/24 05:21:30;;;;;;;16.10;8.40;;;;;;;-144.30;62.85;84160.16;5069503;28;20219;-56
2023/09/24 05:23:58;;;;;;;8.32;7.50;;;;;;;-144.30;61.22;84086.63;5069080;28;20201;-57
2023/09/24 05:26:25;;;;;;;13.80;7.45;;;;;;;-144.30;60.66;84134.31;5069741;28;20222;-59
2023/09/24 05:28:52;;;;;;;10.27;8.27;;;;;;;-144.30;59.64;83993.22;5069422;28;20630;-57
2023/09/24 05:31:19;;;;;;;11.80;7.25;;;;;;;-144.30;58.47;84001.19;5069522;28;20242;-55
2023/09/24 05:33:47;;;;;;;13.60;7.80;;;;;;;-144.30;58.62;83965.41;5069277;28;20200;-56
2023/09/24 05:36:14;;;;;;;13.10;7.20;;;;;;;-144.30;57.70;83941.56;5069970;28;20192;-57
2023/09/24 05:38:40;;;;;;;9.85;7.28;;;;;;;-144.30;56.51;83860.09;5063778;28;20326;-56
2023/09/24 05:41:09;;;;;;;12.75;7.47;;;;;;;-144.30;54.43;83752.78;5068584;28;20192;-56
2023/09/24 05:43:38;;;;;;;15.93;7.68;;;;;;;-144.30;52.77;83663.38;5069177;28;20204;-56
2023/09/24 05:46:05;;;;;;;11.20;6.97;;;;;;;-144.30;50.89;83560.06;5068928;28;20676;-56
2023/09/24 05:48:32;;;;;;;11.13;7.28;;;;;;;-144.30;49.80;83504.44;5068423;28;20193;-57
2023/09/24 05:51:03;;;;;;;14.70;7.07;;;;;;;-144.30;50.21;83528.28;5068605;28;20661;-57
2023/09/24 05:53:30;;;;;;;10.38;7.35;;;;;;;-144.30;50.37;83570.00;5067560;28;20295;-61
2023/09/24 05:55:57;;;;;;;13.80;7.85;;;;;;;-144.30;49.70;83468.66;5068558;28;20203;-61
2023/09/24 05:58:25;;;;;;;11.10;7.57;;;;;;;-144.30;48.76;83474.63;5069411;28;20195;-61
2023/09/24 06:00:52;;;;;;;11.88;6.97;;;;;;;-144.30;48.53;83464.69;5068668;28;20192;-61
2023/09/24 06:03:19;;;;;;;10.73;7.15;;;;;;;-144.30;47.59;83353.44;5068914;28;20282;-56
2023/09/24 06:05:46;;;;;;;11.55;6.93;;;;;;;-144.30;47.09;83331.59;5068473;28;20202;-57
2023/09/24 06:08:13;;;;;;;11.18;6.50;;;;;;;-144.30;46.43;83301.78;5068260;28;20215;-57
2023/09/24 06:10:44;;;;;;;12.13;7.63;;;;;;;-144.30;47.08;83367.34;5068765;28;20584;-61
2023/09/24 06:13:14;;;;;;;19.67;8.27;;;;;;;-144.30;46.61;83305.75;5068350;28;20203;-62
2023/09/24 06:15:42;;;;;;;16.55;7.55;;;;;;;-144.30;45.75;83232.25;5066869;28;20595;-62
2023/09/24 06:18:10;;;;;;;12.68;6.78;;;;;;;-144.30;45.05;83170.66;5068760;28;20220;-56
2023/09/24 06:20:42;;;;;;;19.60;7.40;;;;;;;-144.30;43.95;83083.25;5067225;28;20741;-56
2023/09/24 06:23:11;;;;;;;13.13;7.13;;;;;;;-144.30;42.98;82902.47;5067621;28;20278;-57
2023/09/24 06:25:38;;;;;;;13.10;7.93;;;;;;;-144.30;42.05;82775.34;5068159;28;20196;-58
2023/09/24 06:28:09;;;;;;;11.75;7.65;;;;;;;-144.30;41.73;82896.50;5068208;28;20200;-59
2023/09/24 06:30:36;;;;;;;13.18;7.13;;;;;;;-144.30;41.24;82834.94;5067742;28;20219;-55
2023/09/24 06:33:05;;;;;;;10.30;6.93;;;;;;;-144.30;40.04;82642.25;5067878;28;20235;-57
2023/09/24 06:35:32;;;;;;;12.60;7.40;;;;;;;-144.30;39.39;82614.44;5068913;28;20196;-58
2023/09/24 06:38:01;;;;;;;17.45;7.35;;;;;;;-144.30;38.63;82592.59;5067741;28;20246;-57
2023/09/24 06:40:28;;;;;;;8.10;6.43;;;;;;;-144.30;38.01;82485.34;5068518;28;20196;-57
2023/09/24 06:42:55;;;;;;;10.95;6.68;;;;;;;-144.30;37.87;82469.44;5068373;28;20196;-57
2023/09/24 06:45:22;;;;;;;10.40;6.50;;;;;;;-144.30;38.54;82578.69;5068785;28;20192;-58
2023/09/24 06:47:48;;;;;;;16.88;6.50;;;;;;;-144.30;38.97;82610.47;5068640;28;20217;-56
2023/09/24 06:50:17;;;;;;;11.50;6.38;;;;;;;-144.30;38.82;82495.25;5070777;28;20620;-57
2023/09/24 06:52:44;;;;;;;9.90;6.57;;;;;;;-144.30;37.90;82491.28;5070804;28;20192;-57
2023/09/24 06:55:11;;;;;;;12.57;6.15;;;;;;;-144.30;37.25;82376.09;5072084;28;20200;-59
2023/09/24 06:57:38;;;;;;;10.95;6.65;;;;;;;-144.30;38.35;82550.88;5072460;28;20198;-63
2023/09/24 07:00:08;;;;;;;12.88;6.57;;;;;;;-144.30;38.57;82614.44;5071075;28;20196;-62
2023/09/24 07:02:35;;;;;;;7.20;6.05;;;;;;;-144.30;38.35;82558.81;5071541;28;20203;-62
2023/09/24 07:05:04;;;;;;;9.13;6.78;;;;;;;-144.30;38.42;82596.56;5071983;28;20204;-62
2023/09/24 07:07:33;;;;;;;7.20;6.10;;;;;;;-144.30;37.52;82429.72;5071897;28;20199;-64
2023/09/24 07:10:00;;;;;;;14.75;6.90;;;;;;;-144.30;37.24;82411.84;5072518;28;20287;-64
2023/09/24 07:12:28;;;;;;;11.65;6.70;;;;;;;-144.30;37.05;82395.94;5072894;28;20279;-60
2023/09/24 07:14:55;;;;;;;14.10;6.65;;;;;;;-144.30;37.86;82560.81;5071949;28;20570;-57
2023/09/24 07:17:21;;;;;;;9.82;6.43;;;;;;;-144.30;37.85;82574.72;5072099;28;20256;-57
2023/09/24 07:19:48;;;;;;;9.00;6.30;;;;;;;-144.30;38.93;82703.81;5071450;28;20239;-58
2023/09/24 07:22:15;;;;;;;8.32;6.20;;;;;;;-144.30;38.73;82666.09;5071663;28;20202;-57
2023/09/24 07:24:44;;;;;;;12.25;7.28;;;;;;;-144.30;39.03;82729.66;5071671;28;20242;-63
2023/09/24 07:27:11;;;;;;;13.43;7.25;;;;;;;-144.30;38.61;82652.19;5072428;28;20206;-63
2023/09/24 07:29:39;;;;;;;7.50;6.70;;;;;;;-144.30;38.84;82747.53;5072136;28;20200;-64
2023/09/24 07:32:06;;;;;;;16.08;6.70;;;;;;;-144.30;39.48;82832.94;5071131;28;20304;-64
2023/09/24 07:34:33;;;;;;;18.83;6.93;;;;;;;-144.30;39.00;82666.09;5068183;28;20211;-64
2023/09/24 07:37:00;;;;;;;11.20;7.22;;;;;;;-144.30;38.73;82650.19;5071178;28;20234;-65
2023/09/24 07:39:28;;;;;;;13.07;6.88;;;;;;;-144.30;39.31;82749.50;5071232;28;20231;-64
2023/09/24 07:41:56;;;;;;;11.52;7.15;;;;;;;-144.30;39.03;82759.44;5071640;28;20690;-65
2023/09/24 07:44:23;;;;;;;9.15;7.10;;;;;;;-144.30;38.80;82689.91;5071070;28;20206;-65
2023/09/24 07:46:50;;;;;;;10.70;6.78;;;;;;;-144.30;38.56;82737.59;5071192;28;20204;-64
2023/09/24 07:49:17;;;;;;;13.13;7.38;;;;;;;-144.30;39.14;82793.22;5071229;28;20580;-65
2023/09/24 07:51:44;;;;;;;12.45;6.70;;;;;;;-144.30;39.53;82884.59;5070841;28;20222;-63
2023/09/24 07:54:11;;;;;;;8.82;6.80;;;;;;;-144.30;39.80;82908.44;5070652;28;20200;-62
2023/09/24 07:56:41;;;;;;;12.27;7.30;;;;;;;-144.30;40.53;82979.94;5071288;28;20766;-65
2023/09/24 07:59:11;;;;;;;13.57;7.47;;;;;;;-144.30;41.44;83174.63;5070323;28;20203;-64
2023/09/24 08:01:37;;;;;;;11.23;7.68;;;;;;;-144.30;42.56;83289.84;5068653;28;20203;-64
2023/09/24 08:04:05;;;;;;;11.63;7.32;;;;;;;-144.30;43.70;83327.59;5071116;28;20199;-64
2023/09/24 08:06:32;;;;;;;10.48;7.45;;;;;;;-144.30;44.84;83426.94;5070910;28;20291;-63
2023/09/24 08:08:59;;;;;;;13.70;7.45;;;;;;;-144.30;45.49;83472.66;5070348;28;20591;-63
2023/09/24 08:11:26;;;;;;;12.73;7.25;;;;;;;-144.30;45.63;83482.56;5070351;28;20226;-61
2023/09/24 08:13:53;;;;;;;11.30;6.70;;;;;;;-144.30;45.64;83490.53;5068473;28;20595;-60
2023/09/24 08:16:22;;;;;;;8.88;7.50;;;;;;;-144.30;45.61;83504.44;5068368;28;20204;-61
2023/09/24 08:18:49;;;;;;;13.15;7.80;;;;;;;-144.30;45.80;83508.41;5069160;28;20234;-60
2023/09/24 08:21:18;;;;;;;15.32;7.45;;;;;;;-144.30;46.11;83534.22;5069696;28;20365;-62
2023/09/24 08:23:46;;;;;;;10.57;7.47;;;;;;;-144.30;46.11;83568.00;5069563;28;20246;-61
2023/09/24 08:26:13;;;;;;;11.98;7.97;;;;;;;-144.30;46.43;83556.09;5070372;28;20635;-63
2023/09/24 08:28:40;;;;;;;11.05;7.18;;;;;;;-144.30;46.25;83528.28;5069662;28;20600;-63
2023/09/24 08:31:10;;;;;;;8.48;6.80;;;;;;;-144.30;46.57;83530.25;5067664;28;20327;-62
2023/09/24 08:33:38;;;;;;;10.27;6.72;;;;;;;-144.30;46.26;83488.53;5067199;28;20200;-59
2023/09/24 08:36:09;;;;;;;10.13;7.30;;;;;;;-144.30;46.51;83488.53;5070043;28;20228;-60
2023/09/24 08:38:36;;;;;;;14.20;7.50;;;;;;;-144.30;46.12;83446.81;5070153;28;20204;-60
2023/09/24 08:41:11;;;;;;;9.07;7.38;;;;;;;-144.30;46.07;83424.97;5069746;28;20206;-59
2023/09/24 08:43:41;;;;;;;12.07;7.50;;;;;;;-144.30;45.74;83452.78;5074446;28;20327;-60
2023/09/24 08:46:10;;;;;;;10.00;7.82;;;;;;;-144.30;45.96;83498.47;5069678;28;20433;-59
2023/09/24 08:48:39;;;;;;;12.05;7.25;;;;;;;-144.30;46.21;83492.50;5068746;28;20287;-60
2023/09/24 08:51:09;;;;;;;7.82;6.88;;;;;;;-144.30;46.03;83440.84;5069398;28;20281;-60
2023/09/24 08:53:37;;;;;;;12.95;8.00;;;;;;;-144.30;45.56;83440.84;5069433;28;20210;-59
2023/09/24 08:56:04;;;;;;;11.60;7.78;;;;;;;-144.30;45.45;83313.69;5069526;28;20688;-60
2023/09/24 08:58:31;;;;;;;18.17;7.50;;;;;;;-144.30;45.27;83385.22;5069363;28;20195;-61
2023/09/24 09:00:58;;;;;;;13.82;7.50;;;;;;;-144.30;44.24;83359.41;5069099;28;20195;-60
2023/09/24 09:03:25;;;;;;;13.23;7.50;;;;;;;-144.30;43.89;83297.81;5068709;28;20192;-61
2023/09/24 09:05:53;;;;;;;11.20;7.47;;;;;;;-144.30;43.70;83246.16;5068829;28;20191;-60
2023/09/24 09:08:20;;;;;;;15.88;7.85;;;;;;;-144.30;43.42;83244.16;5066581;28;20206;-60
2023/09/24 09:10:50;;;;;;;12.27;7.72;;;;;;;-144.30;43.09;83226.28;5068762;28;20196;-61
2023/09/24 09:13:18;;;;;;;12.43;7.30;;;;;;;-144.30;43.38;83204.44;5069140;28;20204;-60
2023/09/24 09:15:46;;;;;;;15.07;7.47;;;;;;;-144.30;43.21;83268.00;5069574;28;20196;-61
2023/09/24 09:18:24;;;;;;;12.98;6.82;;;;;;;-144.30;43.31;83200.47;5069137;28;20663;-61
2023/09/24 09:20:58;;;;;;;12.00;6.85;;;;;;;-144.30;43.74;83317.66;5069289;28;20191;-62
2023/09/24 09:23:32;;;;;;;9.63;7.15;;;;;;;-144.30;43.71;83277.94;5063914;28;20269;-62
2023/09/24 09:25:59;;;;;;;11.27;6.75;;;;;;;-144.30;43.54;83293.84;5069176;28;20200;-62
2023/09/24 09:28:28;;;;;;;12.45;7.07;;;;;;;-144.30;43.60;83210.38;5069253;28;20203;-62
2023/09/24 09:31:02;;;;;;;12.38;7.68;;;;;;;-144.30;43.72;83309.72;5068740;28;20227;-62
2023/09/24 09:33:31;;;;;;;12.77;8.43;;;;;;;-144.30;44.06;83194.50;5081060;28;20222;-60
2023/09/24 09:35:59;;;;;;;15.25;7.10;;;;;;;-144.30;44.43;83391.19;5069151;28;20282;-60
2023/09/24 09:38:27;;;;;;;13.35;7.55;;;;;;;-144.30;44.57;83343.50;5069233;28;20717;-61
2023/09/24 09:40:55;;;;;;;25.00;7.47;;;;;;;-144.30;43.99;83353.44;5069279;28;20199;-60
2023/09/24 09:43:25;;;;;;;12.63;6.82;;;;;;;-144.30;44.18;83307.75;5069727;28;20211;-60
2023/09/24 09:45:54;;;;;;;19.30;7.20;;;;;;;-144.30;43.84;83268.00;5068941;28;20203;-60
2023/09/24 09:48:30;;;;;;;13.13;7.03;;;;;;;-144.30;43.67;83345.50;5069333;28;20668;-62
2023/09/24 09:51:05;;;;;;;18.55;7.97;;;;;;;-144.30;43.87;83309.72;5069159;28;20239;-62
2023/09/24 09:53:34;;;;;;;15.38;7.25;;;;;;;-144.30;44.08;83339.53;5068594;28;20469;-61
2023/09/24 09:56:07;;;;;;;11.68;6.65;;;;;;;-144.30;44.28;83353.44;5068750;28;20260;-62
2023/09/24 09:58:36;;;;;;;11.30;6.80;;;;;;;-144.30;44.13;83367.34;5068927;28;20196;-62
2023/09/24 10:01:04;;;;;;;13.68;7.38;;;;;;;-144.30;43.43;83313.69;5069115;28;20206;-62
2023/09/24 10:03:34;;;;;;;10.57;6.90;;;;;;;-144.30;43.53;83190.53;5069246;28;20196;-63
2023/09/24 10:06:03;;;;;;;18.48;6.85;;;;;;;-144.30;43.00;83256.09;5069040;28;20218;-61
2023/09/24 10:08:41;;;;;;;17.83;6.57;;;;;;;-144.30;43.30;83202.44;5068055;28;20259;-62
2023/09/24 10:11:09;;;;;;;23.00;7.20;;;;;;;-144.30;43.00;83210.38;5068483;28;20192;-61
2023/09/24 10:13:47;;;;;;;15.60;6.60;;;;;;;-144.30;43.53;83309.72;5069092;28;20620;-60
2023/09/24 10:16:35;;;;;;;15.57;6.63;;;;;;;-144.30;42.73;83905.81;5069168;28;20208;-63
2023/09/24 10:19:04;;;;;;;13.65;6.97;;;;;;;-144.30;42.85;83240.19;5068630;28;20270;-62
2023/09/24 10:21:34;;;;;;;14.82;7.30;;;;;;;-144.30;43.13;83224.28;5068396;28;20196;-61
2023/09/24 10:24:28;;;;;;;12.27;7.32;;;;;;;-144.30;42.90;83202.44;5067899;28;20206;-62
2023/09/24 10:27:02;;;;;;;16.25;7.97;;;;;;;-144.30;42.39;83174.63;5069817;28;20195;-61
2023/09/24 10:30:03;;;;;;;18.25;8.05;;;;;;;-144.30;42.44;83170.66;5070447;28;20239;-60
2023/09/24 10:32:51;;;;;;;16.90;7.68;;;;;;;-144.30;42.78;83200.47;5072742;28;20230;-60
2023/09/24 10:35:20;;;;;;;16.55;7.07;;;;;;;-144.30;42.24;83178.59;5072683;28;20290;-61
2023/09/24 10:38:04;;;;;;;11.93;7.00;;;;;;;-144.30;42.70;83170.66;5072233;28;20254;-60
2023/09/24 10:40:33;;;;;;;15.13;6.82;;;;;;;-144.30;42.08;83198.47;5072608;28;20196;-60
2023/09/24 10:43:15;;;;;;;21.95;7.60;;;;;;;-144.30;43.03;83212.38;5072602;28;20631;-60
2023/09/24 10:45:43;;;;;;;17.00;7.03;;;;;;;-144.30;42.19;83194.50;5072493;28;20200;-62
2023/09/24 10:48:11;;;;;;;15.43;7.97;;;;;;;-144.30;42.36;83212.38;5072335;28;20265;-61
2023/09/24 10:50:41;;;;;;;13.30;7.28;;;;;;;-144.30;42.62;83222.31;5072258;28;20755;-59
2023/09/24 10:53:10;;;;;;;14.27;7.03;;;;;;;-144.30;42.78;83230.25;5071951;28;20306;-60
2023/09/24 10:55:40;;;;;;;20.50;7.10;;;;;;;-144.30;42.68;83212.38;5072308;28;20192;-60
2023/09/24 10:58:12;;;;;;;13.45;6.68;;;;;;;-144.30;42.51;83218.34;5072098;28;20199;-61
2023/09/24 11:00:40;;;;;;;13.57;7.05;;;;;;;-144.30;42.24;83214.38;5072278;28;20200;-61
2023/09/24 11:03:08;;;;;;;16.10;6.97;;;;;;;-144.30;42.39;83170.66;5066575;28;20192;-60
2023/09/24 11:05:43;;;;;;;13.88;6.93;;;;;;;-144.30;42.46;83240.19;5071791;28;22287;-61
2023/09/24 11:08:12;;;;;;;18.13;6.60;;;;;;;-144.30;42.57;83258.06;5071887;28;20235;-61
2023/09/24 11:10:39;;;;;;;24.33;7.78;;;;;;;-144.30;42.46;83184.56;5071654;28;20195;-60
2023/09/24 11:13:07;;;;;;;15.85;6.50;;;;;;;-144.30;42.41;83194.50;5075970;28;20215;-61
2023/09/24 11:15:37;;;;;;;11.48;6.40;;;;;;;-144.30;42.46;83238.19;5071910;28;20196;-61